Time;durP1;ratioP1;P1;durP2;ratioP2;P2;SDS_P1;SDS_P2;PMS_P1;PMS_P2;Temp;Humidity;BMP_temperature;BMP_pressure;BME280_temperature;BME280_humidity;BME280_pressure;Samples;Min_cycle;Max_cycle;Signal;HPM_P1;HPM_P2
2021/11/22 00:02:23;;;;;;;;;;;;;;;12.09;100.00;101872.28;5056658;28;20245;-60
2021/11/22 00:04:49;;;;;;;;;;;;;;;12.18;100.00;101868.53;5056793;28;20299;-60
2021/11/22 00:07:17;;;;;;;;;;;;;;;12.14;100.00;101868.06;5089440;28;19944;-60
2021/11/22 00:09:43;;;;;;;;;;;;;;;12.02;100.00;101872.19;5056348;28;20015;-60
2021/11/22 00:12:09;;;;;;;;;;;;;;;12.11;100.00;101872.94;5057394;28;20357;-60
2021/11/22 00:14:34;;;;;;;;;;;;;;;12.04;100.00;101871.00;5056421;28;19917;-59
2021/11/22 00:17:00;;;;;;;;;;;;;;;12.09;100.00;101873.13;5056455;28;19912;-60
2021/11/22 00:19:25;;;;;;;;;;;;;;;12.04;100.00;101879.03;5056675;28;19991;-60
2021/11/22 00:21:51;;;;;;;;;;;;;;;12.03;100.00;101876.53;5057411;28;19927;-60
2021/11/22 00:24:16;;;;;;;;;;;;;;;11.99;100.00;101880.53;5056333;28;19913;-60
2021/11/22 00:26:42;;;;;;;;;;;;;;;11.95;100.00;101877.41;5055374;28;19964;-64
2021/11/22 00:29:07;;;;;;;;;;;;;;;11.94;100.00;101877.56;5088793;28;20020;-56
2021/11/22 00:31:35;;;;;;;;;;;;;;;11.90;100.00;101879.78;5056721;28;20349;-61
2021/11/22 00:34:08;;;;;;;;;;;;;;;11.91;100.00;101887.66;5089350;28;19928;-59
2021/11/22 00:36:56;;;;;;;;;;;;;;;11.90;100.00;101887.84;5053367;28;19916;-59
2021/11/22 00:39:22;;;;;;;;;;;;;;;11.87;100.00;101891.69;5056511;28;20016;-60
2021/11/22 00:41:47;;;;;;;;;;;;;;;11.81;100.00;101895.09;5056502;28;19925;-60
2021/11/22 00:44:15;;;;;;;;;;;;;;;11.73;100.00;101900.50;5088549;28;20340;-59
2021/11/22 00:46:41;;;;;;;;;;;;;;;11.78;100.00;101903.50;5057629;28;19928;-60
2021/11/22 00:49:06;;;;;;;;;;;;;;;11.76;100.00;101908.16;5060990;28;19924;-60
2021/11/22 00:51:31;;;;;;;;;;;;;;;11.66;100.00;101916.47;5061876;28;19920;-60
2021/11/22 00:53:57;;;;;;;;;;;;;;;11.72;100.00;101917.59;5060336;28;19927;-60
2021/11/22 00:56:23;;;;;;;;;;;;;;;11.73;100.00;101925.47;5055912;28;19920;-60
2021/11/22 00:58:48;;;;;;;;;;;;;;;11.72;100.00;101929.16;5056291;28;19913;-60
2021/11/22 01:01:14;;;;;;;;;;;;;;;11.71;100.00;101934.69;5055877;28;20010;-59
2021/11/22 01:03:39;;;;;;;;;;;;;;;11.72;100.00;101941.69;5059831;28;19920;-60
2021/11/22 01:06:04;;;;;;;;;;;;;;;11.76;100.00;101943.00;5062947;28;19956;-62
2021/11/22 01:08:30;;;;;;;;;;;;;;;11.64;100.00;101947.13;5094193;28;19921;-60
2021/11/22 01:10:55;;;;;;;;;;;;;;;11.67;100.00;101950.28;5058825;28;20396;-61
2021/11/22 01:13:21;;;;;;;;;;;;;;;11.67;100.00;101946.75;5054413;28;19923;-60
2021/11/22 01:15:46;;;;;;;;;;;;;;;11.58;100.00;101952.16;5056319;28;19923;-60
2021/11/22 01:18:12;;;;;;;;;;;;;;;11.58;100.00;101952.16;5054826;28;20431;-61
2021/11/22 01:20:38;;;;;;;;;;;;;;;11.56;100.00;101962.22;5056054;28;19924;-61
2021/11/22 01:23:05;;;;;;;;;;;;;;;11.56;100.00;101966.75;5088265;28;20002;-60
2021/11/22 01:25:31;;;;;;;;;;;;;;;11.50;100.00;101964.75;5055411;28;19919;-59
2021/11/22 01:27:56;;;;;;;;;;;;;;;11.58;100.00;101968.25;5053817;28;19916;-58
2021/11/22 01:30:22;;;;;;;;;;;;;;;11.58;100.00;101973.59;5054246;28;19964;-61
2021/11/22 01:32:48;;;;;;;;;;;;;;;11.44;100.00;101972.50;5055435;28;20361;-60
2021/11/22 01:35:14;;;;;;;;;;;;;;;11.41;100.00;101969.31;5055386;28;19920;-60
2021/11/22 01:37:39;;;;;;;;;;;;;;;11.55;100.00;101967.75;5054634;28;19920;-60
2021/11/22 01:40:06;;;;;;;;;;;;;;;11.48;100.00;101984.53;5055491;28;19923;-60
2021/11/22 01:42:31;;;;;;;;;;;;;;;11.38;100.00;101985.72;5055202;28;19967;-60
2021/11/22 01:44:56;;;;;;;;;;;;;;;11.32;100.00;101990.78;5054741;28;20326;-60
2021/11/22 01:47:22;;;;;;;;;;;;;;;11.39;100.00;101985.53;5054759;28;19920;-60
2021/11/22 01:49:47;;;;;;;;;;;;;;;11.40;100.00;101991.75;5086945;28;20035;-60
2021/11/22 01:52:13;;;;;;;;;;;;;;;11.43;100.00;101996.75;5055257;28;19927;-60
2021/11/22 01:54:38;;;;;;;;;;;;;;;11.40;100.00;102005.97;5054896;28;20387;-60
2021/11/22 01:57:04;;;;;;;;;;;;;;;11.39;100.00;102004.28;5054823;28;19972;-60
2021/11/22 01:59:29;;;;;;;;;;;;;;;11.40;100.00;102005.97;5054769;28;20391;-60
2021/11/22 02:01:54;;;;;;;;;;;;;;;11.38;100.00;102009.84;5054672;28;20282;-60
2021/11/22 02:04:20;;;;;;;;;;;;;;;11.38;100.00;102007.16;5054753;28;19921;-59
2021/11/22 02:06:45;;;;;;;;;;;;;;;11.38;100.00;102012.50;5053054;28;19920;-61
2021/11/22 02:09:11;;;;;;;;;;;;;;;11.43;100.00;102013.69;5054517;28;19923;-61
2021/11/22 02:11:36;;;;;;;;;;;;;;;11.48;100.00;102015.81;5054778;28;20368;-60
2021/11/22 02:14:02;;;;;;;;;;;;;;;11.34;100.00;102022.72;5086819;28;20046;-59
2021/11/22 02:16:28;;;;;;;;;;;;;;;11.32;100.00;102017.56;5054454;28;19928;-61
2021/11/22 02:18:55;;;;;;;;;;;;;;;11.38;100.00;102025.91;5054498;28;19912;-60
2021/11/22 02:21:21;;;;;;;;;;;;;;;11.35;100.00;102032.44;5053512;28;20007;-58
2021/11/22 02:23:46;;;;;;;;;;;;;;;11.25;100.00;102026.44;5069843;28;20337;-61
2021/11/22 02:26:12;;;;;;;;;;;;;;;11.29;100.00;102028.59;5054073;28;19974;-60
2021/11/22 02:28:37;;;;;;;;;;;;;;;11.23;100.00;102040.00;5053919;28;20338;-61
2021/11/22 02:31:02;;;;;;;;;;;;;;;11.16;100.00;102039.00;5054076;28;19968;-60
2021/11/22 02:33:28;;;;;;;;;;;;;;;11.22;100.00;102046.34;5054560;28;20308;-60
2021/11/22 02:35:57;;;;;;;;;;;;;;;11.16;100.00;102047.03;5052677;28;20323;-59
2021/11/22 02:38:24;;;;;;;;;;;;;;;11.13;100.00;102050.06;5053932;28;19924;-59
2021/11/22 02:40:50;;;;;;;;;;;;;;;11.13;100.00;102055.41;5053921;28;19921;-59
2021/11/22 02:43:15;;;;;;;;;;;;;;;11.15;100.00;102058.75;5086014;28;19917;-60
2021/11/22 02:45:41;;;;;;;;;;;;;;;11.05;100.00;102056.25;5053868;28;20017;-60
2021/11/22 02:48:06;;;;;;;;;;;;;;;11.04;100.00;102063.44;5053789;28;19923;-60
2021/11/22 02:50:32;;;;;;;;;;;;;;;11.04;100.00;102063.44;5085883;28;19916;-59
2021/11/22 02:52:57;;;;;;;;;;;;;;;10.97;100.00;102058.94;5085963;28;19917;-60
2021/11/22 02:55:23;;;;;;;;;;;;;;;10.94;100.00;102060.09;5052926;28;19923;-57
2021/11/22 02:57:49;;;;;;;;;;;;;;;10.94;100.00;102060.09;5053717;28;19917;-59
2021/11/22 03:00:17;;;;;;;;;;;;;;;10.94;100.00;102070.81;5053895;28;19917;-60
2021/11/22 03:02:43;;;;;;;;;;;;;;;10.88;100.00;102074.16;5053433;28;20376;-60
2021/11/22 03:05:08;;;;;;;;;;;;;;;10.89;100.00;102086.53;5068730;28;19916;-60
2021/11/22 03:07:35;;;;;;;;;;;;;;;10.90;100.00;102085.53;5069034;28;19916;-59
2021/11/22 03:10:00;;;;;;;;;;;;;;;10.92;100.00;102090.72;5053085;28;19924;-60
2021/11/22 03:12:26;;;;;;;;;;;;;;;10.84;100.00;102086.19;5053525;28;19943;-59
2021/11/22 03:14:51;;;;;;;;;;;;;;;10.61;100.00;102092.22;5053784;28;20045;-60
2021/11/22 03:17:17;;;;;;;;;;;;;;;10.71;100.00;102086.66;5051789;28;19928;-60
2021/11/22 03:19:42;;;;;;;;;;;;;;;10.61;100.00;102093.03;5068648;28;19965;-60
2021/11/22 03:22:08;;;;;;;;;;;;;;;10.62;100.00;102099.22;5085511;28;20011;-60
2021/11/22 03:24:33;;;;;;;;;;;;;;;10.66;100.00;102102.38;5086002;28;20011;-60
2021/11/22 03:27:00;;;;;;;;;;;;;;;10.66;100.00;102097.91;5053106;28;19916;-61
2021/11/22 03:29:26;;;;;;;;;;;;;;;10.66;100.00;102103.25;5052964;28;19931;-60
2021/11/22 03:31:51;;;;;;;;;;;;;;;10.62;100.00;102107.25;5053047;28;20011;-59
2021/11/22 03:34:16;;;;;;;;;;;;;;;10.62;100.00;102107.25;5053021;28;20007;-60
2021/11/22 03:36:42;;;;;;;;;;;;;;;10.67;100.00;102104.91;5053268;28;19921;-60
2021/11/22 03:39:18;;;;;;;;;;;;;;;10.66;100.00;102113.09;5051849;28;20376;-60
2021/11/22 03:41:44;;;;;;;;;;;;;;;10.70;100.00;102120.63;5053517;28;20018;-60
2021/11/22 03:44:18;;;;;;;;;;;;;;;10.55;100.00;102120.44;5053325;28;19929;-61
2021/11/22 03:46:48;;;;;;;;;;;;;;;10.52;100.00;102122.59;5052130;28;19964;-59
2021/11/22 03:49:14;;;;;;;;;;;;;;;10.60;100.00;102127.97;5051464;28;19917;-61
2021/11/22 03:51:39;;;;;;;;;;;;;;;10.59;100.00;102131.63;5053198;28;19916;-60
2021/11/22 03:54:05;;;;;;;;;;;;;;;10.37;100.00;102133.88;5051507;28;19917;-61
2021/11/22 03:56:31;;;;;;;;;;;;;;;10.43;100.00;102135.09;5053011;28;20372;-60
2021/11/22 03:58:56;;;;;;;;;;;;;;;10.46;100.00;102140.13;5052797;28;19927;-61
2021/11/22 04:01:22;;;;;;;;;;;;;;;10.56;100.00;102142.66;5085232;28;20361;-60
2021/11/22 04:03:48;;;;;;;;;;;;;;;10.62;100.00;102147.38;5051799;28;19980;-59
2021/11/22 04:06:13;;;;;;;;;;;;;;;10.54;100.00;102152.69;5053012;28;20331;-60
2021/11/22 04:08:38;;;;;;;;;;;;;;;10.52;100.00;102146.66;5052599;28;20372;-60
2021/11/22 04:11:04;;;;;;;;;;;;;;;10.35;100.00;102154.59;5052525;28;19923;-60
2021/11/22 04:13:29;;;;;;;;;;;;;;;10.37;100.00;102155.28;5052681;28;19959;-60
2021/11/22 04:15:55;;;;;;;;;;;;;;;10.54;100.00;102158.91;5052445;28;19923;-60
2021/11/22 04:18:20;;;;;;;;;;;;;;;10.39;100.00;102150.63;5051462;28;19978;-60
2021/11/22 04:20:46;;;;;;;;;;;;;;;10.39;100.00;102160.47;5053318;28;20252;-59
2021/11/22 04:23:11;;;;;;;;;;;;;;;10.38;100.00;102165.00;5084816;28;19932;-60
2021/11/22 04:25:37;;;;;;;;;;;;;;;10.38;100.00;102170.34;5053134;28;20413;-60
2021/11/22 04:28:03;;;;;;;;;;;;;;;10.41;100.00;102170.06;5052361;28;19952;-61
2021/11/22 04:30:31;;;;;;;;;;;;;;;10.47;100.00;102173.91;5053441;28;20023;-60
2021/11/22 04:32:57;;;;;;;;;;;;;;;10.37;100.00;102174.00;5054971;28;20016;-60
2021/11/22 04:35:23;;;;;;;;;;;;;;;10.38;100.00;102181.03;5056134;28;19921;-60
2021/11/22 04:37:48;;;;;;;;;;;;;;;10.18;100.00;102186.63;5056081;28;19923;-60
2021/11/22 04:40:15;;;;;;;;;;;;;;;10.27;100.00;102189.34;5054938;28;19921;-61
2021/11/22 04:42:45;;;;;;;;;;;;;;;10.31;100.00;102201.38;5088648;28;19934;-60
2021/11/22 04:45:10;;;;;;;;;;;;;;;10.35;100.00;102208.09;5055813;28;19955;-59
2021/11/22 04:47:36;;;;;;;;;;;;;;;10.37;100.00;102207.94;5055610;28;19923;-59
2021/11/22 04:50:01;;;;;;;;;;;;;;;10.35;100.00;102210.75;5056123;28;20340;-59
2021/11/22 04:52:26;;;;;;;;;;;;;;;10.42;100.00;102211.00;5071436;28;19921;-61
2021/11/22 04:54:52;;;;;;;;;;;;;;;10.32;100.00;102209.25;5056089;28;19916;-60
2021/11/22 04:57:17;;;;;;;;;;;;;;;10.20;100.00;102223.88;5088008;28;19978;-59
2021/11/22 04:59:43;;;;;;;;;;;;;;;10.24;100.00;102224.41;5054702;28;19921;-60
2021/11/22 05:02:09;;;;;;;;;;;;;;;10.30;100.00;102226.44;5088063;28;19925;-61
2021/11/22 05:04:35;;;;;;;;;;;;;;;10.18;100.00;102229.41;5071807;28;19970;-60
2021/11/22 05:07:01;;;;;;;;;;;;;;;10.24;100.00;102233.25;5087909;28;20327;-57
2021/11/22 05:09:26;;;;;;;;;;;;;;;10.29;100.00;102238.16;5054468;28;19916;-59
2021/11/22 05:11:52;;;;;;;;;;;;;;;10.32;100.00;102243.16;5055812;28;20380;-61
2021/11/22 05:14:17;;;;;;;;;;;;;;;10.25;100.00;102250.16;5056181;28;19916;-60
2021/11/22 05:16:43;;;;;;;;;;;;;;;10.11;100.00;102252.41;5055995;28;19913;-59
2021/11/22 05:19:09;;;;;;;;;;;;;;;10.12;100.00;102259.44;5055550;28;19990;-60
2021/11/22 05:21:35;;;;;;;;;;;;;;;10.14;100.00;102253.94;5055636;28;19939;-60
2021/11/22 05:24:01;;;;;;;;;;;;;;;10.08;100.00;102259.91;5087802;28;19921;-61
2021/11/22 05:26:26;;;;;;;;;;;;;;;10.13;100.00;102269.13;5055949;28;19920;-59
2021/11/22 05:28:52;;;;;;;;;;;;;;;10.10;100.00;102264.09;5055086;28;19923;-60
2021/11/22 05:31:17;;;;;;;;;;;;;;;10.20;100.00;102269.34;5070489;28;19918;-61
2021/11/22 05:33:42;;;;;;;;;;;;;;;10.08;100.00;102271.44;5055384;28;20329;-60
2021/11/22 05:36:08;;;;;;;;;;;;;;;10.18;100.00;102276.69;5055795;28;20035;-60
2021/11/22 05:38:33;;;;;;;;;;;;;;;10.10;100.00;102282.81;5055836;28;20357;-61
2021/11/22 05:40:59;;;;;;;;;;;;;;;10.06;100.00;102284.13;5054535;28;20095;-60
2021/11/22 05:43:24;;;;;;;;;;;;;;;10.15;100.00;102282.34;5054797;28;19939;-60
2021/11/22 05:45:50;;;;;;;;;;;;;;;10.13;100.00;102295.84;5086993;28;19978;-60
2021/11/22 05:48:16;;;;;;;;;;;;;;;10.09;100.00;102296.34;5055391;28;19917;-62
2021/11/22 05:50:41;;;;;;;;;;;;;;;9.99;100.00;102294.59;5054809;28;19917;-61
2021/11/22 05:53:07;;;;;;;;;;;;;;;9.92;100.00;102304.22;5054949;28;20365;-61
2021/11/22 05:55:34;;;;;;;;;;;;;;;10.07;100.00;102303.69;5054972;28;19993;-61
2021/11/22 05:58:04;;;;;;;;;;;;;;;9.90;100.00;102306.22;5054908;28;19943;-60
2021/11/22 06:00:30;;;;;;;;;;;;;;;9.84;100.00;102299.66;5053553;28;19920;-61
2021/11/22 06:02:55;;;;;;;;;;;;;;;9.92;100.00;102311.41;5055020;28;19961;-60
2021/11/22 06:05:21;;;;;;;;;;;;;;;9.85;100.00;102319.22;5055416;28;19928;-61
2021/11/22 06:07:46;;;;;;;;;;;;;;;9.96;100.00;102320.81;5053400;28;19927;-59
2021/11/22 06:10:12;;;;;;;;;;;;;;;9.93;100.00;102323.78;5054573;28;19913;-59
2021/11/22 06:12:37;;;;;;;;;;;;;;;9.79;100.00;102320.66;5054572;28;19925;-61
2021/11/22 06:15:06;;;;;;;;;;;;;;;9.92;100.00;102330.97;5055213;28;20369;-61
2021/11/22 06:17:31;;;;;;;;;;;;;;;9.80;100.00;102321.50;5054197;28;19927;-60
2021/11/22 06:19:56;;;;;;;;;;;;;;;9.82;100.00;102331.03;5054979;28;20023;-61
2021/11/22 06:22:22;;;;;;;;;;;;;;;9.80;100.00;102335.69;5054563;28;20353;-61
2021/11/22 06:24:47;;;;;;;;;;;;;;;9.87;100.00;102339.44;5086645;28;19956;-60
2021/11/22 06:27:14;;;;;;;;;;;;;;;9.83;100.00;102332.72;5053989;28;19960;-60
2021/11/22 06:29:40;;;;;;;;;;;;;;;9.88;100.00;102345.63;5086310;28;20356;-60
2021/11/22 06:32:12;;;;;;;;;;;;;;;9.82;100.00;102344.41;5054019;28;20008;-60
2021/11/22 06:34:38;;;;;;;;;;;;;;;9.88;100.00;102351.78;5054225;28;20008;-60
2021/11/22 06:37:04;;;;;;;;;;;;;;;9.82;100.00;102349.75;5052911;28;19912;-59
2021/11/22 06:39:29;;;;;;;;;;;;;;;9.78;100.00;102358.22;5054437;28;20015;-60
2021/11/22 06:41:54;;;;;;;;;;;;;;;9.76;100.00;102356.53;5054227;28;20368;-60
2021/11/22 06:44:21;;;;;;;;;;;;;;;9.64;100.00;102352.41;5053726;28;19966;-62
2021/11/22 06:46:48;;;;;;;;;;;;;;;9.68;100.00;102359.13;5086670;28;19916;-60
2021/11/22 06:49:14;;;;;;;;;;;;;;;9.65;100.00;102364.78;5054260;28;19921;-60
2021/11/22 06:51:39;;;;;;;;;;;;;;;9.67;100.00;102369.97;5053798;28;20007;-60
2021/11/22 06:54:04;;;;;;;;;;;;;;;9.63;100.00;102377.47;5053261;28;19944;-60
2021/11/22 06:56:30;;;;;;;;;;;;;;;9.56;100.00;102382.56;5085958;28;20001;-61
2021/11/22 06:58:55;;;;;;;;;;;;;;;9.61;100.00;102396.28;5086063;28;19924;-61
2021/11/22 07:01:21;;;;;;;;;;;;;;;9.61;100.00;102396.28;5053220;28;19920;-60
2021/11/22 07:03:46;;;;;;;;;;;;;;;9.64;100.00;102408.53;5053401;28;19959;-60
2021/11/22 07:06:11;;;;;;;;;;;;;;;9.59;100.00;102410.81;5053674;28;20299;-60
2021/11/22 07:08:37;;;;;;;;;;;;;;;9.25;100.00;102428.28;5053476;28;19924;-60
2021/11/22 07:11:02;;;;;;;;;;;;;;;9.20;100.00;102429.69;5053475;28;20315;-58
2021/11/22 07:13:30;;;;;;;;;;;;;;;9.11;100.00;102431.41;5053338;28;20382;-60
2021/11/22 07:15:56;;;;;;;;;;;;;;;9.14;100.00;102442.66;5053620;28;19926;-60
2021/11/22 07:18:21;;;;;;;;;;;;;;;9.06;100.00;102447.03;5053843;28;19916;-60
2021/11/22 07:20:47;;;;;;;;;;;;;;;9.06;100.00;102450.53;5051708;28;20353;-60
2021/11/22 07:23:14;;;;;;;;;;;;;;;9.15;100.00;102462.16;5053318;28;20011;-60
2021/11/22 07:25:39;;;;;;;;;;;;;;;9.24;100.00;102460.44;5052971;28;19921;-59
2021/11/22 07:28:05;;;;;;;;;;;;;;;9.27;100.00;102473.50;5053532;28;19916;-60
2021/11/22 07:30:30;;;;;;;;;;;;;;;9.18;100.00;102473.38;5053168;28;20373;-60
2021/11/22 07:32:56;;;;;;;;;;;;;;;9.12;100.00;102475.78;5068399;28;19921;-59
2021/11/22 07:35:22;;;;;;;;;;;;;;;9.10;100.00;102473.25;5085931;28;19948;-60
2021/11/22 07:37:48;;;;;;;;;;;;;;;9.17;100.00;102484.19;5053164;28;19974;-61
2021/11/22 07:40:14;;;;;;;;;;;;;;;9.13;100.00;102485.47;5085248;28;20111;-60
2021/11/22 07:42:40;;;;;;;;;;;;;;;9.54;100.00;102488.69;5053476;28;19916;-61
2021/11/22 07:45:05;;;;;;;;;;;;;;;9.63;100.00;102488.78;5053927;28;19921;-58
2021/11/22 07:47:31;;;;;;;;;;;;;;;9.66;100.00;102492.03;5053307;28;19921;-61
2021/11/22 07:49:57;;;;;;;;;;;;;;;9.68;100.00;102494.53;5085358;28;20320;-59
2021/11/22 07:52:23;;;;;;;;;;;;;;;9.67;100.00;102498.19;5069004;28;20019;-61
2021/11/22 07:54:48;;;;;;;;;;;;;;;9.67;100.00;102498.19;5053788;28;19978;-61
2021/11/22 07:57:14;;;;;;;;;;;;;;;9.71;100.00;102507.63;5051728;28;19974;-61
2021/11/22 07:59:40;;;;;;;;;;;;;;;9.78;100.00;102513.19;5052886;28;19920;-61
2021/11/22 08:02:05;;;;;;;;;;;;;;;9.88;100.00;102514.81;5053452;28;19992;-60
2021/11/22 08:04:30;;;;;;;;;;;;;;;9.84;100.00;102521.44;5055904;28;19924;-60
2021/11/22 08:07:00;;;;;;;;;;;;;;;9.84;100.00;102528.63;5060432;28;19921;-61
2021/11/22 08:09:31;;;;;;;;;;;;;;;9.79;100.00;102525.53;5090601;28;20435;-60
2021/11/22 08:14:34;;;;;;;;;;;;;;;9.93;100.00;102533.06;5057504;28;20373;-60
2021/11/22 08:17:00;;;;;;;;;;;;;;;9.92;100.00;102541.22;5056792;28;19916;-60
2021/11/22 08:19:25;;;;;;;;;;;;;;;10.05;100.00;102541.72;5075455;28;19920;-62
2021/11/22 08:21:51;;;;;;;;;;;;;;;10.04;100.00;102542.72;5059797;28;20007;-60
2021/11/22 08:24:16;;;;;;;;;;;;;;;9.98;100.00;102537.97;5060436;28;19920;-60
2021/11/22 08:26:42;;;;;;;;;;;;;;;10.00;100.00;102534.16;5059805;28;19923;-61
2021/11/22 08:29:07;;;;;;;;;;;;;;;10.04;100.00;102548.06;5055905;28;19916;-60
2021/11/22 08:31:33;;;;;;;;;;;;;;;10.11;100.00;102535.78;5056944;28;20011;-61
2021/11/22 08:33:58;;;;;;;;;;;;;;;10.12;100.00;102547.31;5056418;28;19917;-60
2021/11/22 08:36:25;;;;;;;;;;;;;;;10.10;100.00;102551.97;5056047;28;20071;-60
2021/11/22 08:38:51;;;;;;;;;;;;;;;10.22;100.00;102553.44;5056282;28;20432;-61
2021/11/22 08:41:17;;;;;;;;;;;;;;;10.27;100.00;102550.31;5055843;28;20031;-59
2021/11/22 08:43:42;;;;;;;;;;;;;;;10.28;100.00;102560.03;5055940;28;20324;-61
2021/11/22 08:46:08;;;;;;;;;;;;;;;10.32;100.00;102566.75;5056453;28;19932;-61
2021/11/22 08:48:33;;;;;;;;;;;;;;;10.30;100.00;102558.88;5055836;28;20027;-61
2021/11/22 08:51:02;;;;;;;;;;;;;;;10.34;100.00;102575.44;5087854;28;20009;-61
2021/11/22 08:53:28;;;;;;;;;;;;;;;10.45;100.00;102566.41;5055854;28;19920;-60
2021/11/22 08:55:53;;;;;;;;;;;;;;;10.43;100.00;102563.88;5055077;28;19916;-61
2021/11/22 08:58:18;;;;;;;;;;;;;;;10.60;100.00;102562.22;5071789;28;19917;-59
2021/11/22 09:00:44;;;;;;;;;;;;;;;11.60;100.00;102571.78;5056075;28;19947;-60
2021/11/22 09:03:09;;;;;;;;;;;;;;;13.53;100.00;102590.72;5071785;28;20349;-60
2021/11/22 09:05:35;;;;;;;;;;;;;;;14.74;100.00;102585.06;5055565;28;19917;-60
2021/11/22 09:08:00;;;;;;;;;;;;;;;15.88;96.33;102585.91;5087784;28;19951;-61
2021/11/22 09:10:26;;;;;;;;;;;;;;;16.62;93.66;102602.97;5055482;28;19925;-60
2021/11/22 09:12:51;;;;;;;;;;;;;;;17.30;94.11;102609.78;5071119;28;19963;-60
2021/11/22 09:15:17;;;;;;;;;;;;;;;17.72;78.85;102609.81;5070730;28;19917;-60
2021/11/22 09:17:42;;;;;;;;;;;;;;;18.01;66.85;102618.72;5054654;28;19932;-61
2021/11/22 09:20:09;;;;;;;;;;;;;;;18.48;64.45;102625.13;5055465;28;20463;-60
2021/11/22 09:22:35;;;;;;;;;;;;;;;18.85;58.03;102629.34;5055218;28;19962;-59
2021/11/22 09:25:03;;;;;;;;;;;;;;;19.17;56.04;102630.41;5055357;28;20011;-60
2021/11/22 09:27:28;;;;;;;;;;;;;;;19.34;53.30;102633.53;5070340;28;20007;-59
2021/11/22 09:29:54;;;;;;;;;;;;;;;20.20;54.78;102633.50;5054063;28;20020;-60
2021/11/22 09:32:19;;;;;;;;;;;;;;;20.58;50.39;102637.25;5055330;28;19936;-60
2021/11/22 09:34:44;;;;;;;;;;;;;;;20.97;47.41;102644.53;5054990;28;20007;-60
2021/11/22 09:37:10;;;;;;;;;;;;;;;20.85;46.09;102650.66;5055186;28;20363;-60
2021/11/22 09:39:35;;;;;;;;;;;;;;;21.36;44.07;102647.97;5070134;28;19986;-60
2021/11/22 09:42:01;;;;;;;;;;;;;;;21.57;44.39;102654.84;5054796;28;20019;-60
2021/11/22 09:44:26;;;;;;;;;;;;;;;22.19;42.17;102650.38;5086836;28;20012;-60
2021/11/22 09:46:53;;;;;;;;;;;;;;;22.15;41.18;102660.06;5087264;28;19967;-60
2021/11/22 09:49:18;;;;;;;;;;;;;;;22.60;39.81;102659.69;5053179;28;20257;-59
2021/11/22 09:51:44;;;;;;;;;;;;;;;22.66;39.65;102663.38;5054557;28;20007;-59
2021/11/22 09:54:09;;;;;;;;;;;;;;;22.55;39.23;102661.44;5055130;28;19986;-61
2021/11/22 09:56:35;;;;;;;;;;;;;;;22.45;39.72;102657.38;5054654;28;19975;-60
2021/11/22 09:59:01;;;;;;;;;;;;;;;23.24;38.66;102657.41;5054750;28;20265;-60
2021/11/22 10:01:30;;;;;;;;;;;;;;;23.53;37.20;102658.41;5054723;28;19916;-60
2021/11/22 10:03:57;;;;;;;;;;;;;;;23.66;36.92;102660.03;5054714;28;20373;-60
2021/11/22 10:06:23;;;;;;;;;;;;;;;23.55;36.14;102660.88;5055020;28;19928;-60
2021/11/22 10:08:48;;;;;;;;;;;;;;;23.86;36.42;102662.34;5055828;28;19917;-61
2021/11/22 10:11:16;;;;;;;;;;;;;;;24.15;35.19;102665.13;5056065;28;19960;-60
2021/11/22 10:13:42;;;;;;;;;;;;;;;24.31;34.28;102663.53;5056105;28;20087;-61
2021/11/22 10:16:07;;;;;;;;;;;;;;;24.57;33.94;102663.19;5054685;28;19917;-59
2021/11/22 10:18:37;;;;;;;;;;;;;;;24.41;34.43;102670.28;5072153;28;19922;-59
2021/11/22 10:21:05;;;;;;;;;;;;;;;24.83;32.79;102671.84;5058910;28;19917;-58
2021/11/22 10:23:30;;;;;;;;;;;;;;;25.27;32.40;102672.00;5088871;28;19920;-61
2021/11/22 10:25:57;;;;;;;;;;;;;;;25.64;32.22;102665.13;5053649;28;20225;-61
2021/11/22 10:28:28;;;;;;;;;;;;;;;26.03;31.30;102677.94;5053439;28;19960;-59
2021/11/22 10:30:55;;;;;;;;;;;;;;;26.23;31.15;102676.56;5054389;28;20343;-60
2021/11/22 10:33:23;;;;;;;;;;;;;;;26.48;31.03;102678.75;5054376;28;19960;-59
2021/11/22 10:35:50;;;;;;;;;;;;;;;26.44;30.34;102681.16;5052652;28;19962;-60
2021/11/22 10:38:17;;;;;;;;;;;;;;;26.39;29.96;102686.59;5053928;28;20395;-59
2021/11/22 10:40:48;;;;;;;;;;;;;;;27.59;28.32;102683.72;5054665;28;20009;-61
2021/11/22 10:43:14;;;;;;;;;;;;;;;27.24;28.69;102687.06;5054268;28;20015;-59
2021/11/22 10:45:41;;;;;;;;;;;;;;;27.45;28.08;102682.50;5054028;28;20335;-59
2021/11/22 10:48:17;;;;;;;;;;;;;;;27.29;28.01;102685.19;5053400;28;20008;-60
2021/11/22 10:50:50;;;;;;;;;;;;;;;27.36;28.87;102681.38;5053860;28;19916;-59
2021/11/22 10:53:27;;;;;;;;;;;;;;;27.60;28.17;102681.81;5052974;28;19923;-60
2021/11/22 10:55:53;;;;;;;;;;;;;;;27.77;28.61;102676.94;5053265;28;19924;-60
2021/11/22 10:58:37;;;;;;;;;;;;;;;27.61;28.15;102681.53;5052577;28;19917;-60
2021/11/22 11:01:13;;;;;;;;;;;;;;;28.19;26.96;102683.44;5053980;28;19917;-59
2021/11/22 11:03:38;;;;;;;;;;;;;;;28.12;27.67;102685.56;5053624;28;19917;-60
2021/11/22 11:06:03;;;;;;;;;;;;;;;28.05;28.37;102687.75;5053629;28;19978;-60
2021/11/22 11:08:29;;;;;;;;;;;;;;;28.21;26.63;102679.59;5051360;28;19917;-58
2021/11/22 11:11:07;;;;;;;;;;;;;;;28.45;26.63;102683.47;5052575;28;19919;-60
2021/11/22 11:13:50;;;;;;;;;;;;;;;28.46;25.58;102682.38;5052641;28;19923;-60
2021/11/22 11:16:16;;;;;;;;;;;;;;;28.47;25.89;102683.19;5053444;28;19917;-60
2021/11/22 11:18:54;;;;;;;;;;;;;;;29.00;26.03;102684.91;5052926;28;19971;-61
2021/11/22 11:21:19;;;;;;;;;;;;;;;28.75;24.78;102684.59;5053202;28;20460;-60
2021/11/22 11:23:45;;;;;;;;;;;;;;;28.90;25.22;102685.75;5053046;28;19995;-60
2021/11/22 11:26:10;;;;;;;;;;;;;;;28.81;24.54;102692.88;5052338;28;20294;-60
2021/11/22 11:28:36;;;;;;;;;;;;;;;28.73;24.45;102695.06;5085642;28;20272;-61
2021/11/22 11:31:01;;;;;;;;;;;;;;;28.89;24.17;102701.41;5053265;28;20035;-60
2021/11/22 11:33:26;;;;;;;;;;;;;;;28.80;25.36;102702.25;5052892;28;19920;-61
2021/11/22 11:35:54;;;;;;;;;;;;;;;29.53;23.96;102691.97;5052921;28;19955;-61
2021/11/22 11:38:38;;;;;;;;;;;;;;;28.90;24.33;102702.25;5053496;28;19917;-58
2021/11/22 11:41:07;;;;;;;;;;;;;;;29.42;24.88;102702.22;5052673;28;20418;-60
2021/11/22 11:43:52;;;;;;;;;;;;;;;29.27;23.52;102701.09;5052896;28;19962;-59
2021/11/22 11:46:36;;;;;;;;;;;;;;;30.35;24.37;102706.53;5053181;28;19971;-60
2021/11/22 11:49:05;;;;;;;;;;;;;;;30.22;22.81;102708.78;5052954;28;21808;-60
2021/11/22 11:51:39;;;;;;;;;;;;;;;30.19;22.68;102706.59;5051925;28;19920;-60
2021/11/22 11:54:07;;;;;;;;;;;;;;;30.86;22.83;102708.91;5052602;28;19917;-59
2021/11/22 11:56:33;;;;;;;;;;;;;;;30.46;24.62;102710.84;5052609;28;19921;-59
2021/11/22 11:59:19;;;;;;;;;;;;;;;30.73;22.37;102713.16;5052791;28;19959;-61
2021/11/22 12:02:13;;;;;;;;;;;;;;;30.55;22.36;102717.38;5052633;28;19920;-59
2021/11/22 12:04:44;;;;;;;;;;;;;;;30.62;21.92;102708.81;5030269;28;19920;-59
2021/11/22 12:07:11;;;;;;;;;;;;;;;31.24;21.82;102711.06;5052851;28;20052;-61
2021/11/22 12:09:41;;;;;;;;;;;;;;;30.99;21.49;102712.09;5052775;28;19917;-59
2021/11/22 12:12:13;;;;;;;;;;;;;;;31.26;21.41;102711.59;5051963;28;19920;-61
2021/11/22 12:14:49;;;;;;;;;;;;;;;31.05;22.40;102708.19;5053239;28;19917;-59
2021/11/22 12:17:33;;;;;;;;;;;;;;;31.21;22.05;102710.81;5052650;28;19916;-58
2021/11/22 12:20:04;;;;;;;;;;;;;;;31.16;22.01;102714.44;5084900;28;19986;-60
2021/11/22 12:22:34;;;;;;;;;;;;;;;30.66;21.73;102717.38;5053090;28;19990;-59
2021/11/22 12:24:59;;;;;;;;;;;;;;;31.19;22.91;102713.84;5052436;28;19923;-60
2021/11/22 12:27:27;;;;;;;;;;;;;;;30.60;23.26;102709.09;5052475;28;20011;-59
2021/11/22 12:29:56;;;;;;;;;;;;;;;31.21;21.24;102711.66;5052525;28;19928;-59
2021/11/22 12:32:35;;;;;;;;;;;;;;;31.88;20.67;102713.69;5052186;28;20371;-61